createdAt,value
2017-11-24T00:01:51.661Z,70.47
2017-11-24T00:04:20.234Z,75.17
2017-11-24T00:06:48.652Z,73.63
2017-11-24T00:09:16.478Z,78.80
2017-11-24T00:11:44.823Z,77.10
2017-11-24T00:14:12.381Z,67.47
2017-11-24T00:16:39.942Z,74.97
2017-11-24T00:19:07.508Z,64.33
2017-11-24T00:21:35.614Z,66.00
2017-11-24T00:24:03.925Z,65.13
2017-11-24T00:26:31.495Z,72.97
2017-11-24T00:28:59.024Z,79.40
2017-11-24T00:31:26.688Z,76.17
2017-11-24T00:33:54.386Z,81.57
2017-11-24T00:36:21.917Z,79.50
2017-11-24T00:38:49.696Z,76.07
2017-11-24T00:41:17.248Z,78.47
2017-11-24T00:43:44.853Z,78.00
2017-11-24T00:46:12.401Z,69.63
2017-11-24T00:48:39.951Z,77.13
2017-11-24T00:51:07.463Z,79.60
2017-11-24T00:53:35.767Z,75.37
2017-11-24T00:56:03.323Z,74.27
2017-11-24T00:58:30.879Z,79.80
2017-11-24T01:00:58.560Z,77.80
2017-11-24T01:03:26.097Z,79.70
2017-11-24T01:05:54.568Z,81.70
2017-11-24T01:08:22.154Z,74.10
2017-11-24T01:10:49.691Z,69.50
2017-11-24T01:13:17.272Z,70.53
2017-11-24T01:15:45.346Z,86.07
2017-11-24T01:18:12.932Z,70.57
2017-11-24T01:20:40.487Z,65.80
2017-11-24T01:23:08.500Z,71.60
2017-11-24T01:25:36.835Z,75.30
2017-11-24T01:28:04.384Z,76.20
2017-11-24T01:30:31.874Z,78.97
2017-11-24T01:32:59.433Z,71.27
2017-11-24T01:35:26.953Z,72.50
2017-11-24T01:37:55.339Z,66.13
2017-11-24T01:40:22.971Z,80.90
2017-11-24T01:42:50.655Z,71.97
2017-11-24T01:45:18.205Z,69.00
2017-11-24T01:47:45.806Z,70.77
2017-11-24T01:50:15.005Z,72.37
2017-11-24T01:52:43.525Z,76.37
2017-11-24T01:55:12.135Z,58.10
2017-11-24T01:57:39.676Z,74.73
2017-11-24T02:00:07.956Z,72.50
2017-11-24T02:02:35.507Z,73.47
2017-11-24T02:05:04.839Z,59.43
2017-11-24T02:07:32.371Z,68.63
2017-11-24T02:10:00.636Z,74.73
2017-11-24T02:12:28.949Z,71.27
2017-11-24T02:14:56.935Z,75.67
2017-11-24T02:17:24.506Z,72.50
2017-11-24T02:19:52.623Z,71.70
2017-11-24T02:22:20.165Z,69.50
2017-11-24T02:24:48.479Z,68.10
2017-11-24T02:27:16.047Z,67.30
2017-11-24T02:29:43.618Z,65.93
2017-11-24T02:32:11.537Z,70.67
2017-11-24T02:34:39.845Z,61.03
2017-11-24T02:37:07.388Z,59.03
2017-11-24T02:39:35.017Z,60.53
2017-11-24T02:42:02.592Z,56.63
2017-11-24T02:44:30.907Z,59.57
2017-11-24T02:46:58.486Z,56.90
2017-11-24T02:49:25.995Z,50.50
2017-11-24T02:51:53.548Z,52.83
2017-11-24T02:54:21.920Z,55.27
2017-11-24T02:56:50.280Z,54.90
2017-11-24T02:59:17.862Z,53.87
2017-11-24T03:01:46.197Z,58.43
2017-11-24T03:04:13.758Z,50.27
2017-11-24T03:06:41.318Z,50.27
2017-11-24T03:09:08.893Z,48.60
2017-11-24T03:11:36.426Z,53.80
2017-11-24T03:14:03.971Z,47.63
2017-11-24T03:16:31.619Z,46.50
2017-11-24T03:18:59.377Z,47.97
2017-11-24T03:21:27.653Z,41.43
2017-11-24T03:23:55.408Z,45.30
2017-11-24T03:26:23.698Z,40.17
2017-11-24T03:28:52.012Z,44.90
2017-11-24T03:31:19.568Z,36.27
2017-11-24T03:33:47.065Z,40.37
2017-11-24T03:36:14.592Z,39.70
2017-11-24T03:38:42.101Z,44.87
2017-11-24T03:41:09.668Z,45.03
2017-11-24T03:43:37.711Z,41.13
2017-11-24T03:46:06.061Z,40.33
2017-11-24T03:48:33.613Z,44.30
2017-11-24T03:51:01.170Z,42.20
2017-11-24T03:53:28.715Z,42.03
2017-11-24T03:55:59.166Z,37.23
2017-11-24T03:58:26.737Z,42.57
2017-11-24T04:00:54.293Z,48.83
2017-11-24T04:03:22.020Z,37.60
2017-11-24T04:05:49.544Z,41.07
2017-11-24T04:08:17.080Z,45.43
2017-11-24T04:10:44.631Z,45.93
2017-11-24T04:13:12.190Z,39.90
2017-11-24T04:15:39.734Z,35.60
2017-11-24T04:18:07.318Z,35.53
2017-11-24T04:20:34.836Z,41.67
2017-11-24T04:23:02.361Z,41.50
2017-11-24T04:25:29.930Z,37.70
2017-11-24T04:27:58.252Z,34.63
2017-11-24T04:30:25.849Z,36.57
2017-11-24T04:32:54.102Z,40.13
2017-11-24T04:35:21.655Z,53.47
2017-11-24T04:37:50.190Z,48.83
2017-11-24T04:40:18.469Z,47.70
2017-11-24T04:42:46.837Z,54.53
2017-11-24T04:45:15.136Z,49.70
2017-11-24T04:47:42.693Z,56.57
2017-11-24T04:50:10.353Z,47.33
2017-11-24T04:52:37.900Z,50.53
2017-11-24T04:55:06.327Z,49.53
2017-11-24T04:57:33.859Z,51.17
2017-11-24T05:00:02.309Z,61.17
2017-11-24T05:02:29.948Z,53.60
2017-11-24T05:04:57.439Z,52.07
2017-11-24T05:07:25.747Z,54.47
2017-11-24T05:09:53.261Z,51.47
2017-11-24T05:12:20.809Z,56.97
2017-11-24T05:14:48.373Z,59.60
2017-11-24T05:17:15.939Z,53.30
2017-11-24T05:19:43.437Z,54.20
2017-11-24T05:22:11.007Z,52.17
2017-11-24T05:24:38.518Z,61.10
2017-11-24T05:27:06.050Z,48.00
2017-11-24T05:29:33.680Z,57.87
2017-11-24T05:32:01.250Z,57.97
2017-11-24T05:34:28.775Z,56.87
2017-11-24T05:36:57.070Z,59.67
2017-11-24T05:39:24.883Z,54.23
2017-11-24T05:41:52.467Z,60.30
2017-11-24T05:44:20.813Z,67.17
2017-11-24T05:46:48.420Z,53.33
2017-11-24T05:49:16.008Z,68.77
2017-11-24T05:51:43.569Z,60.23
2017-11-24T05:54:11.086Z,65.80
2017-11-24T05:56:39.390Z,67.37
2017-11-24T05:59:06.946Z,63.70
2017-11-24T06:01:34.451Z,64.80
2017-11-24T06:04:01.954Z,64.37
2017-11-24T06:06:29.526Z,66.40
2017-11-24T06:08:57.056Z,63.30
2017-11-24T06:11:24.600Z,63.67
2017-11-24T06:13:52.473Z,75.00
2017-11-24T06:16:20.054Z,59.80
2017-11-24T06:18:47.624Z,66.70
2017-11-24T06:21:15.251Z,76.23
2017-11-24T06:23:42.823Z,70.20
2017-11-24T06:26:10.410Z,73.83
2017-11-24T06:28:37.978Z,68.23
2017-11-24T06:31:05.526Z,71.70
2017-11-24T06:33:34.074Z,67.27
2017-11-24T06:36:01.601Z,64.73
2017-11-24T06:38:29.169Z,68.60
2017-11-24T06:40:56.717Z,67.03
2017-11-24T06:43:24.283Z,68.10
2017-11-24T06:45:52.000Z,78.20
2017-11-24T06:48:19.545Z,73.33
2017-11-24T06:50:47.345Z,66.23
2017-11-24T06:53:14.891Z,66.77
2017-11-24T06:55:43.177Z,75.90
2017-11-24T06:58:10.748Z,72.63
2017-11-24T07:00:38.285Z,71.90
2017-11-24T07:03:06.606Z,86.97
2017-11-24T07:05:34.136Z,75.13
2017-11-24T07:08:01.660Z,68.83
2017-11-24T07:10:29.215Z,72.13
2017-11-24T07:12:56.912Z,67.80
2017-11-24T07:15:24.924Z,70.80
2017-11-24T07:17:53.475Z,62.40
2017-11-24T07:20:20.988Z,65.87
2017-11-24T07:22:48.551Z,72.70
2017-11-24T07:25:16.845Z,67.10
2017-11-24T07:27:44.402Z,59.50
2017-11-24T07:30:11.910Z,63.77
2017-11-24T07:32:39.455Z,55.60
2017-11-24T07:35:08.016Z,58.23
2017-11-24T07:37:36.428Z,56.63
2017-11-24T07:40:04.936Z,59.20
2017-11-24T07:42:32.496Z,49.43
2017-11-24T07:45:00.028Z,54.10
2017-11-24T07:47:27.595Z,59.53
2017-11-24T07:49:55.154Z,49.30
2017-11-24T07:52:22.701Z,50.63
2017-11-24T07:54:50.256Z,48.13
2017-11-24T07:57:17.808Z,44.80
2017-11-24T07:59:45.369Z,57.90
2017-11-24T08:02:13.114Z,51.17
2017-11-24T08:04:40.665Z,57.13
2017-11-24T08:07:09.080Z,55.20
2017-11-24T08:09:36.624Z,56.30
2017-11-24T08:12:04.175Z,54.63
2017-11-24T08:14:31.707Z,55.30
2017-11-24T08:16:59.221Z,50.73
2017-11-24T08:19:26.774Z,55.03
2017-11-24T08:21:54.341Z,59.53
2017-11-24T08:24:21.955Z,55.63
2017-11-24T08:26:50.321Z,58.23
2017-11-24T08:29:17.887Z,57.60
2017-11-24T08:31:45.721Z,53.13
2017-11-24T08:34:13.226Z,51.77
2017-11-24T08:36:40.829Z,47.77
2017-11-24T08:39:08.354Z,56.13
2017-11-24T08:41:35.870Z,50.33
2017-11-24T08:44:03.426Z,62.00
2017-11-24T08:46:36.643Z,60.33
2017-11-24T08:49:09.731Z,52.50
2017-11-24T08:51:37.252Z,65.17
2017-11-24T08:54:04.769Z,58.50
2017-11-24T08:56:32.300Z,55.87
2017-11-24T08:58:59.849Z,61.37
2017-11-24T09:01:27.397Z,56.40
2017-11-24T09:03:54.936Z,52.80
2017-11-24T09:06:22.496Z,62.47
2017-11-24T09:08:50.260Z,47.27
2017-11-24T09:11:17.975Z,53.53
2017-11-24T09:13:46.536Z,56.20
2017-11-24T09:16:14.056Z,51.33
2017-11-24T09:18:41.607Z,53.43
2017-11-24T09:21:09.156Z,54.57
2017-11-24T09:23:36.741Z,52.43
2017-11-24T09:26:04.276Z,57.07
2017-11-24T09:28:33.231Z,58.80
2017-11-24T09:31:00.850Z,48.80
2017-11-24T09:33:28.430Z,54.33
2017-11-24T09:35:55.984Z,57.33
2017-11-24T09:38:23.564Z,56.47
2017-11-24T09:40:51.087Z,57.20
2017-11-24T09:43:19.612Z,56.77
2017-11-24T09:45:47.774Z,59.13
2017-11-24T09:48:15.308Z,61.53
2017-11-24T09:50:42.874Z,68.20
2017-11-24T09:53:10.400Z,55.77
2017-11-24T09:55:38.085Z,67.03
2017-11-24T09:58:05.698Z,62.43
2017-11-24T10:00:33.998Z,63.50
2017-11-24T10:03:03.137Z,60.13
2017-11-24T10:05:30.643Z,58.37
2017-11-24T10:07:59.006Z,64.43
2017-11-24T10:10:26.589Z,64.70
2017-11-24T10:12:54.850Z,64.90
2017-11-24T10:15:22.429Z,60.50
2017-11-24T10:17:50.004Z,63.30
2017-11-24T10:20:17.528Z,61.60
2017-11-24T10:22:45.437Z,71.30
2017-11-24T10:25:13.012Z,74.63
2017-11-24T10:27:40.550Z,68.37
2017-11-24T10:30:08.455Z,81.97
2017-11-24T10:32:36.029Z,67.37
2017-11-24T10:35:03.635Z,76.00
2017-11-24T10:37:31.198Z,70.27
2017-11-24T10:39:59.295Z,70.90
2017-11-24T10:42:26.871Z,66.13
2017-11-24T10:44:54.439Z,64.90
2017-11-24T10:47:22.488Z,74.30
2017-11-24T10:49:50.015Z,74.30
2017-11-24T10:52:17.550Z,78.43
2017-11-24T10:54:45.101Z,69.17
2017-11-24T10:57:12.637Z,73.63
2017-11-24T10:59:40.158Z,89.67
2017-11-24T11:02:07.717Z,95.47
2017-11-24T11:04:35.291Z,89.00
2017-11-24T11:07:02.828Z,107.77
2017-11-24T11:09:31.283Z,89.30
2017-11-24T11:11:59.107Z,83.70
2017-11-24T11:14:26.836Z,72.57
2017-11-24T11:16:54.828Z,71.43
2017-11-24T11:19:22.431Z,79.23
2017-11-24T11:21:50.774Z,79.20
2017-11-24T11:24:18.311Z,78.27
2017-11-24T11:26:45.879Z,69.67
2017-11-24T11:29:13.401Z,82.97
2017-11-24T11:31:41.881Z,80.33
2017-11-24T11:34:09.437Z,82.13
2017-11-24T11:36:37.574Z,89.87
2017-11-24T11:39:05.172Z,74.77
2017-11-24T11:41:32.754Z,87.47
2017-11-24T11:44:00.337Z,76.03
2017-11-24T11:46:27.877Z,89.63
2017-11-24T11:48:55.783Z,86.80
2017-11-24T11:51:23.293Z,81.37
2017-11-24T11:53:51.679Z,91.97
2017-11-24T11:56:20.222Z,94.67
2017-11-24T11:58:47.781Z,95.93
2017-11-24T12:01:15.406Z,92.43
2017-11-24T12:03:42.984Z,89.13
2017-11-24T12:06:10.564Z,76.03
2017-11-24T12:08:38.173Z,86.53
2017-11-24T12:11:05.709Z,90.03
2017-11-24T12:13:33.292Z,73.03
2017-11-24T12:16:00.841Z,83.03
2017-11-24T12:18:28.433Z,79.90
2017-11-24T12:20:55.994Z,77.60
2017-11-24T12:23:23.548Z,75.33
2017-11-24T12:25:51.115Z,76.17
2017-11-24T12:28:18.673Z,91.17
2017-11-24T12:30:46.228Z,84.27
2017-11-24T12:33:13.747Z,83.57
2017-11-24T12:35:42.066Z,80.07
2017-11-24T12:38:09.734Z,73.63
2017-11-24T12:40:37.341Z,72.10
2017-11-24T12:43:05.692Z,64.93
2017-11-24T12:45:33.273Z,80.60
2017-11-24T12:48:00.844Z,82.93
2017-11-24T12:50:29.246Z,76.00
2017-11-24T12:52:56.823Z,86.20
2017-11-24T12:55:24.343Z,78.77
2017-11-24T12:57:51.921Z,78.30
2017-11-24T13:00:19.504Z,81.00
2017-11-24T13:02:47.059Z,79.00
2017-11-24T13:05:14.593Z,78.77
2017-11-24T13:07:42.141Z,68.67
2017-11-24T13:10:10.485Z,81.60
2017-11-24T13:12:38.130Z,83.33
2017-11-24T13:15:06.965Z,83.50
2017-11-24T13:17:35.441Z,74.53
2017-11-24T13:20:04.663Z,79.17
2017-11-24T13:22:32.225Z,78.40
2017-11-24T13:24:59.761Z,79.13
2017-11-24T13:27:27.365Z,77.17
2017-11-24T13:29:54.948Z,70.73
2017-11-24T13:32:22.474Z,68.90
2017-11-24T13:34:50.020Z,83.60
2017-11-24T13:37:18.497Z,73.40
2017-11-24T13:39:46.836Z,67.67
2017-11-24T13:42:14.412Z,72.07
2017-11-24T13:44:42.385Z,81.53
2017-11-24T13:47:09.922Z,78.40
2017-11-24T13:49:37.488Z,76.93
2017-11-24T13:52:05.614Z,71.63
2017-11-24T13:54:33.293Z,66.47
2017-11-24T13:57:00.877Z,76.20
2017-11-24T13:59:28.438Z,68.10
2017-11-24T14:01:56.146Z,65.77
2017-11-24T14:04:24.610Z,65.63
2017-11-24T14:06:52.235Z,72.77
2017-11-24T14:09:19.820Z,63.27
2017-11-24T14:11:47.551Z,63.87
2017-11-24T14:14:15.092Z,74.77
2017-11-24T14:16:42.692Z,63.20
2017-11-24T14:19:10.204Z,65.10
2017-11-24T14:21:37.755Z,63.30
2017-11-24T14:24:07.028Z,71.17
2017-11-24T14:26:35.578Z,55.20
2017-11-24T14:29:03.107Z,58.83
2017-11-24T14:31:30.683Z,49.50
2017-11-24T14:33:58.396Z,54.77
2017-11-24T14:36:26.917Z,58.43
2017-11-24T14:38:57.241Z,59.50
2017-11-24T14:41:24.908Z,57.70
2017-11-24T14:43:52.507Z,55.03
2017-11-24T14:46:20.353Z,53.70
2017-11-24T14:48:47.917Z,55.10
2017-11-24T14:51:15.501Z,51.97
2017-11-24T14:53:43.109Z,50.40
2017-11-24T14:56:11.493Z,47.37
2017-11-24T14:58:39.038Z,51.10
2017-11-24T15:01:07.386Z,49.20
2017-11-24T15:03:34.972Z,48.63
2017-11-24T15:06:02.788Z,54.03
2017-11-24T15:08:30.351Z,49.93
2017-11-24T15:10:57.991Z,51.73
2017-11-24T15:13:25.515Z,53.77
2017-11-24T15:15:53.865Z,55.90
2017-11-24T15:18:21.473Z,63.20
2017-11-24T15:20:49.021Z,51.57
2017-11-24T15:23:16.610Z,55.90
2017-11-24T15:25:44.205Z,50.70
2017-11-24T15:28:11.930Z,50.17
2017-11-24T15:30:39.513Z,57.20
2017-11-24T15:33:07.131Z,47.80
2017-11-24T15:35:34.675Z,46.40
2017-11-24T15:38:02.245Z,44.13
2017-11-24T15:40:29.950Z,44.67
2017-11-24T15:42:57.596Z,53.90
2017-11-24T15:45:25.945Z,47.00
2017-11-24T15:47:54.278Z,39.07
2017-11-24T15:50:21.873Z,41.17
2017-11-24T15:52:50.233Z,40.50
2017-11-24T15:55:17.847Z,40.30
2017-11-24T15:57:46.121Z,43.57
2017-11-24T16:00:13.708Z,40.77
2017-11-24T16:02:41.221Z,35.30
2017-11-24T16:05:09.937Z,42.40
2017-11-24T16:07:37.632Z,35.20
2017-11-24T16:10:05.205Z,37.30
2017-11-24T16:12:32.743Z,42.80
2017-11-24T16:15:00.309Z,38.27
2017-11-24T16:17:27.885Z,38.90
2017-11-24T16:19:55.416Z,39.40
2017-11-24T16:22:23.786Z,36.37
2017-11-24T16:24:51.708Z,38.50
2017-11-24T16:27:20.080Z,39.00
2017-11-24T16:29:48.480Z,42.67
2017-11-24T16:32:16.121Z,40.67
2017-11-24T16:34:44.466Z,47.53
2017-11-24T16:37:12.059Z,39.90
2017-11-24T16:39:39.725Z,40.70
2017-11-24T16:42:07.362Z,37.73
2017-11-24T16:44:34.944Z,33.47
2017-11-24T16:47:03.167Z,41.00
2017-11-24T16:49:30.761Z,42.07
2017-11-24T16:51:58.346Z,42.83
2017-11-24T16:54:26.860Z,42.33
2017-11-24T16:56:54.442Z,34.70
2017-11-24T16:59:22.754Z,42.43
2017-11-24T17:01:50.339Z,35.57
2017-11-24T17:04:19.090Z,42.37
2017-11-24T17:06:48.163Z,38.70
2017-11-24T17:09:17.724Z,44.67
2017-11-24T17:11:45.414Z,44.93
2017-11-24T17:14:13.000Z,42.23
2017-11-24T17:16:40.642Z,41.80
2017-11-24T17:19:11.250Z,39.77
2017-11-24T17:21:40.279Z,38.13
2017-11-24T17:24:09.673Z,36.73
2017-11-24T17:26:37.342Z,36.23
2017-11-24T17:29:04.960Z,36.60
2017-11-24T17:31:34.214Z,38.97
2017-11-24T17:34:01.815Z,33.20
2017-11-24T17:36:30.129Z,29.53
2017-11-24T17:38:57.765Z,31.40
2017-11-24T17:41:25.350Z,35.40
2017-11-24T17:43:53.116Z,35.87
2017-11-24T17:46:21.309Z,33.30
2017-11-24T17:48:48.837Z,37.00
2017-11-24T17:51:17.199Z,35.57
2017-11-24T17:53:47.319Z,36.57
2017-11-24T17:56:15.625Z,34.73
2017-11-24T17:58:43.410Z,33.20
2017-11-24T18:01:11.686Z,34.57
2017-11-24T18:03:39.250Z,39.47
2017-11-24T18:06:06.845Z,39.17
2017-11-24T18:08:35.179Z,35.33
2017-11-24T18:11:02.724Z,40.90
2017-11-24T18:13:30.389Z,33.30
2017-11-24T18:15:57.971Z,34.30
2017-11-24T18:18:25.710Z,34.33
2017-11-24T18:20:53.325Z,34.27
2017-11-24T18:23:20.902Z,37.53
2017-11-24T18:25:48.450Z,34.93
2017-11-24T18:28:17.385Z,46.13
2017-11-24T18:30:45.029Z,41.53
2017-11-24T18:33:12.579Z,40.67
2017-11-24T18:35:41.814Z,39.80
2017-11-24T18:38:09.389Z,37.57
2017-11-24T18:40:37.035Z,40.17
2017-11-24T18:43:04.583Z,39.37
2017-11-24T18:45:32.106Z,39.93
2017-11-24T18:48:00.434Z,37.40
2017-11-24T18:50:28.055Z,33.80
2017-11-24T18:52:56.384Z,35.20
2017-11-24T18:55:23.904Z,37.00
2017-11-24T18:57:51.448Z,34.53
2017-11-24T19:00:19.736Z,37.43
2017-11-24T19:02:47.513Z,37.60
2017-11-24T19:05:15.824Z,38.75
2017-11-24T19:07:44.003Z,37.63
2017-11-24T19:10:11.890Z,37.20
2017-11-24T19:12:39.466Z,38.50
2017-11-24T19:15:08.988Z,35.37
2017-11-24T19:17:37.395Z,33.50
2017-11-24T19:20:05.897Z,36.00
2017-11-24T19:22:33.537Z,40.87
2017-11-24T19:25:01.573Z,47.37
2017-11-24T19:27:29.973Z,43.50
2017-11-24T19:29:57.533Z,41.40
2017-11-24T19:32:26.030Z,39.87
2017-11-24T19:34:53.641Z,41.60
2017-11-24T19:37:21.250Z,46.73
2017-11-24T19:39:48.815Z,36.03
2017-11-24T19:42:16.396Z,38.23
2017-11-24T19:44:43.988Z,38.73
2017-11-24T19:47:12.949Z,39.30
2017-11-24T19:49:41.267Z,37.70
2017-11-24T19:52:09.718Z,43.30
2017-11-24T19:54:38.013Z,44.07
2017-11-24T19:57:05.638Z,44.67
2017-11-24T19:59:33.258Z,45.10
2017-11-24T20:02:02.531Z,44.90
2017-11-24T20:04:30.094Z,44.83
2017-11-24T20:06:57.759Z,44.03
2017-11-24T20:09:26.586Z,56.93
2017-11-24T20:11:54.232Z,46.53
2017-11-24T20:14:21.903Z,44.33
2017-11-24T20:16:49.490Z,50.50
2017-11-24T20:19:17.049Z,50.97
2017-11-24T20:21:44.585Z,44.47
2017-11-24T20:24:12.196Z,48.53
2017-11-24T20:26:39.762Z,45.00
2017-11-24T20:29:07.310Z,44.30
2017-11-24T20:31:34.822Z,49.43
2017-11-24T20:34:03.144Z,48.00
2017-11-24T20:36:30.678Z,51.60
2017-11-24T20:38:58.179Z,53.53
2017-11-24T20:41:26.508Z,55.47
2017-11-24T20:43:54.673Z,50.20
2017-11-24T20:46:22.221Z,50.00
2017-11-24T20:48:50.909Z,55.80
2017-11-24T20:51:19.197Z,60.00
2017-11-24T20:53:46.761Z,46.63
2017-11-24T20:56:14.318Z,56.23
2017-11-24T20:58:41.898Z,61.07
2017-11-24T21:01:09.408Z,60.30
2017-11-24T21:03:37.756Z,66.90
2017-11-24T21:06:05.339Z,61.53
2017-11-24T21:08:32.892Z,60.43
2017-11-24T21:11:00.429Z,59.93
2017-11-24T21:13:28.124Z,60.50
2017-11-24T21:15:55.737Z,53.00
2017-11-24T21:18:23.355Z,61.30
2017-11-24T21:20:51.777Z,56.93
2017-11-24T21:23:19.359Z,48.33
2017-11-24T21:25:46.878Z,67.77
2017-11-24T21:28:15.277Z,54.00
2017-11-24T21:30:42.874Z,51.07
2017-11-24T21:33:10.443Z,54.83
2017-11-24T21:35:37.973Z,56.60
2017-11-24T21:38:06.743Z,51.57
2017-11-24T21:40:34.367Z,56.70
2017-11-24T21:43:02.520Z,53.03
2017-11-24T21:45:30.080Z,50.80
2017-11-24T21:47:57.852Z,52.57
2017-11-24T21:50:26.957Z,55.47
2017-11-24T21:52:56.785Z,51.37
2017-11-24T21:55:26.462Z,55.83
2017-11-24T21:57:56.306Z,53.23
2017-11-24T22:00:24.786Z,54.47
2017-11-24T22:02:52.294Z,47.10
2017-11-24T22:05:22.676Z,52.03
2017-11-24T22:07:50.417Z,51.50
2017-11-24T22:10:18.848Z,56.40
2017-11-24T22:12:47.981Z,56.60
2017-11-24T22:15:16.930Z,61.93
2017-11-24T22:17:47.024Z,63.60
2017-11-24T22:20:15.355Z,62.33
2017-11-24T22:22:45.330Z,51.23
2017-11-24T22:25:14.829Z,57.70
2017-11-24T22:27:43.300Z,59.10
2017-11-24T22:30:12.501Z,58.17
2017-11-24T22:32:41.189Z,51.33
2017-11-24T22:35:08.996Z,53.90
2017-11-24T22:37:37.363Z,53.90
2017-11-24T22:40:05.019Z,58.43
2017-11-24T22:42:34.208Z,60.33
2017-11-24T22:45:02.418Z,53.93
2017-11-24T22:47:30.012Z,55.97
2017-11-24T22:49:58.427Z,57.20
2017-11-24T22:52:26.934Z,57.23
2017-11-24T22:54:55.081Z,57.37
2017-11-24T22:57:25.207Z,57.53
2017-11-24T22:59:54.442Z,51.50
2017-11-24T23:02:21.985Z,61.50
2017-11-24T23:04:50.135Z,56.23
2017-11-24T23:07:17.713Z,56.03
2017-11-24T23:09:45.426Z,53.73
2017-11-24T23:12:13.874Z,63.63
2017-11-24T23:14:41.420Z,63.43
2017-11-24T23:17:08.998Z,63.30
2017-11-24T23:19:36.539Z,62.53
2017-11-24T23:22:04.088Z,55.47
2017-11-24T23:24:31.621Z,53.53
2017-11-24T23:26:59.186Z,48.63
2017-11-24T23:29:26.713Z,53.43
2017-11-24T23:31:54.991Z,49.73
2017-11-24T23:34:23.350Z,55.27
2017-11-24T23:36:50.859Z,56.53
2017-11-24T23:39:18.370Z,54.00
2017-11-24T23:41:45.945Z,52.33
2017-11-24T23:44:13.476Z,56.37
2017-11-24T23:46:41.668Z,54.23
2017-11-24T23:49:09.196Z,60.50
2017-11-24T23:51:36.747Z,60.90
2017-11-24T23:54:04.276Z,59.27
2017-11-24T23:56:32.554Z,62.60
2017-11-24T23:59:00.112Z,62.50
